Time;durP1;ratioP1;P1;durP2;ratioP2;P2;SDS_P1;SDS_P2;PMS_P1;PMS_P2;Temp;Humidity;BMP_temperature;BMP_pressure;BME280_temperature;BME280_humidity;BME280_pressure;Samples;Min_cycle;Max_cycle;Signal;HPM_P1;HPM_P2
2023/04/09 00:00:39;;;;;;;39.03;27.67;;;;;;;;;;4953506;29;20225;-64
2023/04/09 00:03:04;;;;;;;42.85;29.58;;;;;;;;;;4953633;29;20222;-64
2023/04/09 00:05:29;;;;;;;43.70;30.58;;;;;;;;;;4954111;29;20220;-64
2023/04/09 00:07:55;;;;;;;42.92;30.55;;;;;;;;;;4953039;29;20206;-64
2023/04/09 00:10:20;;;;;;;42.28;29.65;;;;;;;;;;4953312;28;20246;-64
2023/04/09 00:12:45;;;;;;;41.90;28.98;;;;;;;;;;4953684;29;20231;-64
2023/04/09 00:15:10;;;;;;;39.67;28.48;;;;;;;;;;4952660;29;20268;-64
2023/04/09 00:17:36;;;;;;;54.20;35.65;;;;;;;;;;4953906;29;20294;-64
2023/04/09 00:20:01;;;;;;;44.92;29.85;;;;;;;;;;4953443;29;20226;-64
2023/04/09 00:22:26;;;;;;;42.15;29.45;;;;;;;;;;4935793;29;20252;-64
2023/04/09 00:24:52;;;;;;;42.97;30.40;;;;;;;;;;4953612;29;20581;-64
2023/04/09 00:27:17;;;;;;;43.45;30.27;;;;;;;;;;4953025;29;20297;-64
2023/04/09 00:29:42;;;;;;;42.72;29.42;;;;;;;;;;4952897;29;20237;-64
2023/04/09 00:32:07;;;;;;;39.88;27.98;;;;;;;;;;4971885;28;20221;-64
2023/04/09 00:34:33;;;;;;;42.30;28.67;;;;;;;;;;4972797;28;20324;-64
2023/04/09 00:36:59;;;;;;;43.78;30.20;;;;;;;;;;4972067;28;20236;-64
2023/04/09 00:39:25;;;;;;;52.08;35.50;;;;;;;;;;4954933;28;20213;-64
2023/04/09 00:41:54;;;;;;;41.53;29.63;;;;;;;;;;4955464;28;20280;-64
2023/04/09 00:44:19;;;;;;;46.72;30.98;;;;;;;;;;4971770;28;20317;-64
2023/04/09 00:46:45;;;;;;;47.05;33.70;;;;;;;;;;4971539;28;20748;-64
2023/04/09 00:49:10;;;;;;;48.25;33.25;;;;;;;;;;4941697;28;20232;-64
2023/04/09 00:51:35;;;;;;;42.03;29.67;;;;;;;;;;4972470;28;20233;-64
2023/04/09 00:54:00;;;;;;;42.65;30.02;;;;;;;;;;4971782;28;20591;-64
2023/04/09 00:56:26;;;;;;;40.45;29.02;;;;;;;;;;4971704;28;20248;-64
2023/04/09 00:58:51;;;;;;;43.38;30.33;;;;;;;;;;4972432;28;20217;-64
2023/04/09 01:01:16;;;;;;;41.85;29.05;;;;;;;;;;4971952;28;20712;-64
2023/04/09 01:03:42;;;;;;;44.65;30.70;;;;;;;;;;4971591;28;20305;-64
2023/04/09 01:06:07;;;;;;;42.17;29.63;;;;;;;;;;4971827;28;20716;-64
2023/04/09 01:08:33;;;;;;;39.88;28.38;;;;;;;;;;4972076;28;20214;-64
2023/04/09 01:11:06;;;;;;;45.50;31.85;;;;;;;;;;4971072;28;20248;-64
2023/04/09 01:13:34;;;;;;;49.35;35.55;;;;;;;;;;4954632;28;20237;-64
2023/04/09 01:16:00;;;;;;;44.85;29.13;;;;;;;;;;4954856;28;20309;-64
2023/04/09 01:18:28;;;;;;;43.03;29.52;;;;;;;;;;4953585;28;20733;-64
2023/04/09 01:21:04;;;;;;;40.88;29.17;;;;;;;;;;4950848;28;20281;-64
2023/04/09 01:23:35;;;;;;;42.78;29.42;;;;;;;;;;4944464;28;20222;-64
2023/04/09 01:26:02;;;;;;;39.25;27.92;;;;;;;;;;4942160;28;20230;-64
2023/04/09 01:28:31;;;;;;;43.20;29.58;;;;;;;;;;4942992;28;20302;-64
2023/04/09 01:30:57;;;;;;;37.35;27.58;;;;;;;;;;4947307;28;20215;-64
2023/04/09 01:33:23;;;;;;;40.30;27.73;;;;;;;;;;4960563;28;20327;-64
2023/04/09 01:35:49;;;;;;;41.65;28.60;;;;;;;;;;4920514;28;20259;-64
2023/04/09 01:38:15;;;;;;;39.50;28.00;;;;;;;;;;4934384;28;20218;-64
2023/04/09 01:40:41;;;;;;;41.90;28.27;;;;;;;;;;4954065;28;20356;-64
2023/04/09 01:43:06;;;;;;;39.80;27.92;;;;;;;;;;4936375;28;20214;-63
2023/04/09 01:45:32;;;;;;;39.42;27.88;;;;;;;;;;4943860;28;20845;-64
2023/04/09 01:47:57;;;;;;;38.78;28.17;;;;;;;;;;4951405;28;20686;-64
2023/04/09 01:50:23;;;;;;;39.70;27.38;;;;;;;;;;4945320;28;20226;-64
2023/04/09 01:52:48;;;;;;;38.15;28.00;;;;;;;;;;4942115;28;20577;-64
2023/04/09 01:55:13;;;;;;;37.80;28.10;;;;;;;;;;4942100;28;20226;-64
2023/04/09 01:57:38;;;;;;;40.70;28.73;;;;;;;;;;4922687;28;20735;-64
2023/04/09 02:00:05;;;;;;;43.58;29.00;;;;;;;;;;4934920;28;20268;-64
2023/04/09 02:02:34;;;;;;;37.15;27.95;;;;;;;;;;4954340;28;20693;-64
2023/04/09 02:05:00;;;;;;;43.45;29.83;;;;;;;;;;4957408;28;20300;-64
2023/04/09 02:07:31;;;;;;;39.15;28.42;;;;;;;;;;4960433;28;20220;-64
2023/04/09 02:09:57;;;;;;;38.28;28.92;;;;;;;;;;4961173;28;20689;-64
2023/04/09 02:12:22;;;;;;;40.70;28.48;;;;;;;;;;4943699;28;20339;-64
2023/04/09 02:14:49;;;;;;;38.55;27.80;;;;;;;;;;4943572;28;20221;-64
2023/04/09 02:17:14;;;;;;;39.42;28.52;;;;;;;;;;4924780;28;20713;-64
2023/04/09 02:19:40;;;;;;;37.80;27.30;;;;;;;;;;4941507;28;20218;-64
2023/04/09 02:22:05;;;;;;;36.90;27.70;;;;;;;;;;4934694;28;20250;-64
2023/04/09 02:24:31;;;;;;;36.45;27.08;;;;;;;;;;4935160;28;20245;-64
2023/04/09 02:26:56;;;;;;;37.88;26.90;;;;;;;;;;4938142;28;20281;-64
2023/04/09 02:29:22;;;;;;;36.22;26.23;;;;;;;;;;4946685;28;20221;-64
2023/04/09 02:31:47;;;;;;;35.65;25.63;;;;;;;;;;4942614;28;20222;-64
2023/04/09 02:34:12;;;;;;;34.70;26.10;;;;;;;;;;4946319;28;20628;-64
2023/04/09 02:36:37;;;;;;;34.72;25.48;;;;;;;;;;4964334;28;20580;-64
2023/04/09 02:39:03;;;;;;;36.15;26.13;;;;;;;;;;4964698;28;20214;-64
2023/04/09 02:41:28;;;;;;;34.78;26.42;;;;;;;;;;4964463;28;20217;-64
2023/04/09 02:43:53;;;;;;;37.17;27.17;;;;;;;;;;4958815;28;20393;-64
2023/04/09 02:46:18;;;;;;;34.58;24.67;;;;;;;;;;4957166;28;20220;-64
2023/04/09 02:48:44;;;;;;;36.22;26.40;;;;;;;;;;4940824;28;20989;-64
2023/04/09 02:51:09;;;;;;;34.08;25.40;;;;;;;;;;4944014;28;20301;-64
2023/04/09 02:53:36;;;;;;;36.88;26.88;;;;;;;;;;4961316;28;20242;-64
2023/04/09 02:56:01;;;;;;;38.35;26.05;;;;;;;;;;4963608;28;20288;-64
2023/04/09 02:58:27;;;;;;;36.88;26.60;;;;;;;;;;4964618;28;20261;-64
2023/04/09 03:00:52;;;;;;;35.65;25.33;;;;;;;;;;4965171;28;20790;-64
2023/04/09 03:03:17;;;;;;;36.35;25.98;;;;;;;;;;4957156;28;20743;-64
2023/04/09 03:05:43;;;;;;;33.22;25.20;;;;;;;;;;4942470;28;20230;-64
2023/04/09 03:08:08;;;;;;;35.60;24.52;;;;;;;;;;4938190;28;20218;-64
2023/04/09 03:10:33;;;;;;;36.67;25.95;;;;;;;;;;4937835;28;20221;-64
2023/04/09 03:12:59;;;;;;;35.42;25.30;;;;;;;;;;4941318;28;20230;-64
2023/04/09 03:15:24;;;;;;;35.35;25.58;;;;;;;;;;4945111;28;20222;-64
2023/04/09 03:17:49;;;;;;;32.80;24.65;;;;;;;;;;4944884;28;21145;-64
2023/04/09 03:20:15;;;;;;;34.42;24.88;;;;;;;;;;4945132;28;20226;-64
2023/04/09 03:22:40;;;;;;;31.73;24.20;;;;;;;;;;4945538;28;20242;-64
2023/04/09 03:25:05;;;;;;;35.38;24.05;;;;;;;;;;4944212;28;20226;-64
2023/04/09 03:27:31;;;;;;;34.10;24.25;;;;;;;;;;4944061;28;20927;-64
2023/04/09 03:29:56;;;;;;;32.97;23.92;;;;;;;;;;4938572;28;20903;-64
2023/04/09 03:32:21;;;;;;;32.28;23.70;;;;;;;;;;4936631;28;20218;-64
2023/04/09 03:34:47;;;;;;;33.05;23.67;;;;;;;;;;4938704;28;20234;-64
2023/04/09 03:37:12;;;;;;;28.52;21.88;;;;;;;;;;4944678;28;20218;-64
2023/04/09 03:39:37;;;;;;;32.30;23.67;;;;;;;;;;4944431;28;20222;-64
2023/04/09 03:42:03;;;;;;;32.28;24.30;;;;;;;;;;4963277;28;20264;-64
2023/04/09 03:44:28;;;;;;;32.08;23.63;;;;;;;;;;4963073;28;20214;-64
2023/04/09 03:46:53;;;;;;;32.53;23.90;;;;;;;;;;4961394;28;20217;-64
2023/04/09 03:49:18;;;;;;;33.20;23.67;;;;;;;;;;4944568;28;20566;-64
2023/04/09 03:51:44;;;;;;;33.08;24.05;;;;;;;;;;4939340;28;20277;-64
2023/04/09 03:54:09;;;;;;;33.15;23.65;;;;;;;;;;4954986;28;20256;-64
2023/04/09 03:56:34;;;;;;;31.33;23.42;;;;;;;;;;4956371;28;20217;-64
2023/04/09 03:59:00;;;;;;;34.72;24.60;;;;;;;;;;4961673;28;20249;-64
2023/04/09 04:01:25;;;;;;;32.28;23.40;;;;;;;;;;4963106;28;20241;-64
2023/04/09 04:03:50;;;;;;;33.50;23.73;;;;;;;;;;4963671;28;20712;-64
2023/04/09 04:06:15;;;;;;;32.28;22.98;;;;;;;;;;4962471;28;20214;-64
2023/04/09 04:08:41;;;;;;;31.63;23.63;;;;;;;;;;4963687;28;20249;-64
2023/04/09 04:11:06;;;;;;;32.08;23.45;;;;;;;;;;4962774;28;20273;-64
2023/04/09 04:13:31;;;;;;;33.33;23.45;;;;;;;;;;4959331;28;20221;-65
2023/04/09 04:15:56;;;;;;;29.80;22.55;;;;;;;;;;4956214;28;20218;-64
2023/04/09 04:18:22;;;;;;;31.52;22.77;;;;;;;;;;4955828;28;20218;-64
2023/04/09 04:20:47;;;;;;;33.17;24.52;;;;;;;;;;4958483;28;20234;-64
2023/04/09 04:23:12;;;;;;;34.42;23.98;;;;;;;;;;4962947;28;20218;-64
2023/04/09 04:25:41;;;;;;;33.05;23.85;;;;;;;;;;4968631;28;20293;-64
2023/04/09 04:28:06;;;;;;;33.83;24.50;;;;;;;;;;4956686;28;20210;-64
2023/04/09 04:30:31;;;;;;;32.20;24.33;;;;;;;;;;4969734;28;20224;-64
2023/04/09 04:32:56;;;;;;;35.10;24.60;;;;;;;;;;4972859;28;20272;-64
2023/04/09 04:35:22;;;;;;;33.90;24.50;;;;;;;;;;4971459;28;20312;-64
2023/04/09 04:37:49;;;;;;;35.88;24.17;;;;;;;;;;4972929;28;20226;-64
2023/04/09 04:40:15;;;;;;;33.05;23.92;;;;;;;;;;4972305;28;20593;-64
2023/04/09 04:42:40;;;;;;;32.08;23.35;;;;;;;;;;4971957;28;20214;-63
2023/04/09 04:45:05;;;;;;;33.83;24.70;;;;;;;;;;4972207;28;20265;-63
2023/04/09 04:47:31;;;;;;;41.75;24.23;;;;;;;;;;4965379;28;20207;-64
2023/04/09 04:49:56;;;;;;;34.72;24.05;;;;;;;;;;4965416;28;20214;-63
2023/04/09 04:52:21;;;;;;;32.83;23.77;;;;;;;;;;4972057;28;20230;-64
2023/04/09 04:54:47;;;;;;;35.70;24.27;;;;;;;;;;4966198;28;20609;-64
2023/04/09 04:57:12;;;;;;;36.55;24.17;;;;;;;;;;4943022;28;20214;-64
2023/04/09 04:59:38;;;;;;;33.42;23.85;;;;;;;;;;4943374;28;20222;-64
2023/04/09 05:02:04;;;;;;;31.20;22.50;;;;;;;;;;4943178;28;20227;-64
2023/04/09 05:04:29;;;;;;;32.22;23.60;;;;;;;;;;4961333;28;20213;-64
2023/04/09 05:06:54;;;;;;;34.28;23.80;;;;;;;;;;4956700;28;20593;-64
2023/04/09 05:09:20;;;;;;;33.53;22.92;;;;;;;;;;4953526;28;20221;-62
2023/04/09 05:11:45;;;;;;;29.65;22.58;;;;;;;;;;4955287;28;20245;-62
2023/04/09 05:14:11;;;;;;;32.63;22.77;;;;;;;;;;4951303;28;20443;-63
2023/04/09 05:16:37;;;;;;;32.15;23.02;;;;;;;;;;4942668;28;20241;-64
2023/04/09 05:19:02;;;;;;;33.67;26.23;;;;;;;;;;4941973;28;20527;-64
2023/04/09 05:21:27;;;;;;;35.35;25.00;;;;;;;;;;4944053;28;20214;-63
2023/04/09 05:23:53;;;;;;;32.67;21.95;;;;;;;;;;4958165;28;20210;-66
2023/04/09 05:26:18;;;;;;;33.22;22.20;;;;;;;;;;4947910;28;20813;-65
2023/04/09 05:28:43;;;;;;;30.40;21.92;;;;;;;;;;4939420;28;20215;-65
2023/04/09 05:31:11;;;;;;;30.05;22.27;;;;;;;;;;4934745;28;20222;-65
2023/04/09 05:33:37;;;;;;;29.38;21.80;;;;;;;;;;4935888;28;20218;-65
2023/04/09 05:36:02;;;;;;;31.15;22.13;;;;;;;;;;4939402;28;20242;-65
2023/04/09 05:38:27;;;;;;;33.38;22.30;;;;;;;;;;4942342;28;20321;-65
2023/04/09 05:40:53;;;;;;;31.52;22.33;;;;;;;;;;4942692;28;20306;-65
2023/04/09 05:43:18;;;;;;;29.65;21.40;;;;;;;;;;4942307;28;20218;-66
2023/04/09 05:45:43;;;;;;;28.75;21.25;;;;;;;;;;4942531;28;20333;-66
2023/04/09 05:48:09;;;;;;;29.52;21.77;;;;;;;;;;4942526;28;20270;-66
2023/04/09 05:50:34;;;;;;;31.38;21.45;;;;;;;;;;4942419;28;20733;-66
2023/04/09 05:53:00;;;;;;;29.15;21.65;;;;;;;;;;4935166;28;20238;-66
2023/04/09 05:55:26;;;;;;;28.70;21.80;;;;;;;;;;4954328;28;20214;-67
2023/04/09 05:57:51;;;;;;;31.48;23.15;;;;;;;;;;4955639;28;20221;-67
2023/04/09 06:00:17;;;;;;;29.25;21.75;;;;;;;;;;4960475;28;20853;-66
2023/04/09 06:02:43;;;;;;;31.88;22.35;;;;;;;;;;4961507;28;20218;-66
2023/04/09 06:05:08;;;;;;;32.58;22.50;;;;;;;;;;4961050;28;20356;-66
2023/04/09 06:07:33;;;;;;;29.70;22.23;;;;;;;;;;4961317;28;20218;-66
2023/04/09 06:09:59;;;;;;;30.40;22.85;;;;;;;;;;4965670;28;20567;-66
2023/04/09 06:12:24;;;;;;;32.05;23.02;;;;;;;;;;4965144;28;20217;-66
2023/04/09 06:14:49;;;;;;;29.45;19.77;;;;;;;;;;4958344;28;20217;-65
2023/04/09 06:17:15;;;;;;;33.90;23.63;;;;;;;;;;4957615;28;20336;-65
2023/04/09 06:19:40;;;;;;;31.40;23.90;;;;;;;;;;4957577;28;20572;-66
2023/04/09 06:22:08;;;;;;;32.63;23.85;;;;;;;;;;4964042;28;20225;-65
2023/04/09 06:24:33;;;;;;;32.15;22.75;;;;;;;;;;4965749;28;20229;-65
2023/04/09 06:26:59;;;;;;;32.60;23.40;;;;;;;;;;4957569;28;20211;-65
2023/04/09 06:29:24;;;;;;;34.40;24.63;;;;;;;;;;4928879;28;20690;-65
2023/04/09 06:31:50;;;;;;;34.03;24.13;;;;;;;;;;4945842;28;20564;-64
2023/04/09 06:34:15;;;;;;;32.17;24.27;;;;;;;;;;4945216;28;20214;-65
2023/04/09 06:36:41;;;;;;;34.92;25.02;;;;;;;;;;4942005;28;20922;-65
2023/04/09 06:39:06;;;;;;;35.05;24.95;;;;;;;;;;4957227;28;20225;-64
2023/04/09 06:41:31;;;;;;;33.42;23.70;;;;;;;;;;4956899;28;20297;-64
2023/04/09 06:43:57;;;;;;;33.72;24.23;;;;;;;;;;4950391;28;20226;-64
2023/04/09 06:46:22;;;;;;;32.03;24.05;;;;;;;;;;4945631;28;20218;-64
2023/04/09 06:48:48;;;;;;;33.13;24.80;;;;;;;;;;4945371;28;20207;-64
2023/04/09 06:51:13;;;;;;;34.35;25.17;;;;;;;;;;4945589;28;20222;-65
2023/04/09 06:53:39;;;;;;;33.22;23.83;;;;;;;;;;4945732;28;20227;-65
2023/04/09 06:56:04;;;;;;;35.13;25.27;;;;;;;;;;4944558;28;20226;-65
2023/04/09 06:58:30;;;;;;;35.72;25.17;;;;;;;;;;4926081;28;20301;-65
2023/04/09 07:00:55;;;;;;;33.83;24.42;;;;;;;;;;4927678;29;20773;-65
2023/04/09 07:03:20;;;;;;;33.13;24.75;;;;;;;;;;4942453;28;20225;-64
2023/04/09 07:05:46;;;;;;;33.05;24.67;;;;;;;;;;4964223;28;20736;-65
2023/04/09 07:08:11;;;;;;;34.75;24.90;;;;;;;;;;4963463;28;20209;-64
2023/04/09 07:10:37;;;;;;;31.88;24.10;;;;;;;;;;4963249;28;20302;-65
2023/04/09 07:13:02;;;;;;;33.60;24.48;;;;;;;;;;4973724;28;20222;-64
2023/04/09 07:15:27;;;;;;;30.80;24.45;;;;;;;;;;4974251;28;20218;-64
2023/04/09 07:17:53;;;;;;;35.28;23.83;;;;;;;;;;4973470;28;20550;-64
2023/04/09 07:20:18;;;;;;;32.38;24.70;;;;;;;;;;4972718;28;20206;-63
2023/04/09 07:22:43;;;;;;;32.38;23.98;;;;;;;;;;4974241;28;20248;-61
2023/04/09 07:25:09;;;;;;;36.70;24.27;;;;;;;;;;4973017;28;20580;-62
2023/04/09 07:27:34;;;;;;;34.08;24.60;;;;;;;;;;4974019;28;20218;-65
2023/04/09 07:29:59;;;;;;;33.25;25.42;;;;;;;;;;4970248;28;20206;-65
2023/04/09 07:32:26;;;;;;;30.42;23.25;;;;;;;;;;4973376;28;20871;-64
2023/04/09 07:34:52;;;;;;;35.42;24.55;;;;;;;;;;4973826;28;20709;-64
2023/04/09 07:37:17;;;;;;;31.35;23.98;;;;;;;;;;4972573;28;20221;-64
2023/04/09 07:39:42;;;;;;;32.90;24.60;;;;;;;;;;4970888;28;20293;-63
2023/04/09 07:42:08;;;;;;;30.08;23.48;;;;;;;;;;4960783;28;20222;-64
2023/04/09 07:44:33;;;;;;;30.48;24.40;;;;;;;;;;4953743;29;20286;-62
2023/04/09 07:46:59;;;;;;;32.05;25.05;;;;;;;;;;4954230;29;20242;-65
2023/04/09 07:49:24;;;;;;;31.30;24.35;;;;;;;;;;4961386;28;20217;-65
2023/04/09 07:51:50;;;;;;;30.33;23.42;;;;;;;;;;4953519;29;20562;-66
2023/04/09 07:54:15;;;;;;;33.72;23.77;;;;;;;;;;4953738;29;20225;-64
2023/04/09 07:56:40;;;;;;;28.58;23.02;;;;;;;;;;4954442;29;20300;-65
2023/04/09 07:59:06;;;;;;;32.30;23.48;;;;;;;;;;4952922;29;20210;-64
2023/04/09 08:01:31;;;;;;;29.52;22.55;;;;;;;;;;4958406;28;20622;-65
2023/04/09 08:03:56;;;;;;;27.35;22.23;;;;;;;;;;4970115;28;20209;-65
2023/04/09 08:06:21;;;;;;;27.60;22.02;;;;;;;;;;4959783;28;20298;-65
2023/04/09 08:08:47;;;;;;;30.33;22.35;;;;;;;;;;4961139;28;20242;-65
2023/04/09 08:11:12;;;;;;;31.08;23.17;;;;;;;;;;4953548;29;20628;-64
2023/04/09 08:13:37;;;;;;;28.00;22.48;;;;;;;;;;4966265;28;20324;-65
2023/04/09 08:16:03;;;;;;;30.67;23.65;;;;;;;;;;4972632;28;20608;-64
2023/04/09 08:18:29;;;;;;;28.52;22.17;;;;;;;;;;4972867;28;20217;-65
2023/04/09 08:20:55;;;;;;;29.35;21.95;;;;;;;;;;4972399;28;20244;-64
2023/04/09 08:23:20;;;;;;;27.55;22.17;;;;;;;;;;4965454;28;20206;-64
2023/04/09 08:25:45;;;;;;;27.70;21.67;;;;;;;;;;4953823;29;20583;-65
2023/04/09 08:28:10;;;;;;;25.30;20.73;;;;;;;;;;4952676;29;20701;-64
2023/04/09 08:30:36;;;;;;;26.23;20.70;;;;;;;;;;4952868;28;20937;-65
2023/04/09 08:33:01;;;;;;;25.45;19.75;;;;;;;;;;4955472;28;20600;-64
2023/04/09 08:35:27;;;;;;;25.52;19.73;;;;;;;;;;4952331;29;20234;-65
2023/04/09 08:37:53;;;;;;;27.23;20.63;;;;;;;;;;4920639;29;20268;-65
2023/04/09 08:40:18;;;;;;;24.80;20.80;;;;;;;;;;4952043;29;20211;-65
2023/04/09 08:42:45;;;;;;;25.40;20.27;;;;;;;;;;4953332;29;20686;-65
2023/04/09 08:45:11;;;;;;;25.02;19.92;;;;;;;;;;4952698;29;20219;-64
2023/04/09 08:47:36;;;;;;;27.45;21.13;;;;;;;;;;4939903;29;20761;-65
2023/04/09 08:50:01;;;;;;;26.40;20.40;;;;;;;;;;4954627;28;20214;-64
2023/04/09 08:52:33;;;;;;;26.52;20.17;;;;;;;;;;4972453;28;20802;-64
2023/04/09 08:54:58;;;;;;;26.52;20.27;;;;;;;;;;4971784;28;20225;-65
2023/04/09 08:57:24;;;;;;;25.95;20.70;;;;;;;;;;4971948;28;20217;-65
2023/04/09 08:59:49;;;;;;;26.98;20.33;;;;;;;;;;4972493;28;20301;-65
2023/04/09 09:02:14;;;;;;;25.88;19.42;;;;;;;;;;4971110;28;20221;-64
2023/04/09 09:04:46;;;;;;;23.85;19.58;;;;;;;;;;4971994;28;20557;-65
2023/04/09 09:07:12;;;;;;;26.58;19.90;;;;;;;;;;4971774;28;20244;-64
2023/04/09 09:09:52;;;;;;;21.90;18.25;;;;;;;;;;4971597;28;20245;-64
2023/04/09 09:12:30;;;;;;;24.52;18.85;;;;;;;;;;4968416;28;20765;-65
2023/04/09 09:14:56;;;;;;;22.88;18.05;;;;;;;;;;4952808;28;20237;-64
2023/04/09 09:17:21;;;;;;;23.52;18.60;;;;;;;;;;4951717;28;21052;-64
2023/04/09 09:19:46;;;;;;;22.58;18.48;;;;;;;;;;4952605;28;20222;-65
2023/04/09 09:22:12;;;;;;;24.75;18.38;;;;;;;;;;4952268;28;20289;-64
2023/04/09 09:24:46;;;;;;;22.60;17.80;;;;;;;;;;4952001;28;20612;-65
2023/04/09 09:27:11;;;;;;;21.55;17.45;;;;;;;;;;4935155;28;20729;-64
2023/04/09 09:29:40;;;;;;;23.50;18.60;;;;;;;;;;4934657;29;20274;-65
2023/04/09 09:32:05;;;;;;;22.85;17.27;;;;;;;;;;4960129;28;20228;-64
2023/04/09 09:34:30;;;;;;;24.23;18.17;;;;;;;;;;4924648;28;20231;-65
2023/04/09 09:36:55;;;;;;;21.83;17.70;;;;;;;;;;4943761;28;20253;-65
2023/04/09 09:39:21;;;;;;;20.98;17.17;;;;;;;;;;4959688;28;20518;-65
2023/04/09 09:41:47;;;;;;;20.08;16.63;;;;;;;;;;4964711;28;20237;-65
2023/04/09 09:44:29;;;;;;;21.70;17.02;;;;;;;;;;4946865;28;20249;-65
2023/04/09 09:46:54;;;;;;;20.45;17.38;;;;;;;;;;4963415;28;20217;-64
2023/04/09 09:49:19;;;;;;;21.15;16.52;;;;;;;;;;4948003;28;20206;-64
2023/04/09 09:51:45;;;;;;;20.67;16.70;;;;;;;;;;4964411;28;20225;-64
2023/04/09 09:54:11;;;;;;;21.63;17.73;;;;;;;;;;4947555;28;20800;-64
2023/04/09 09:56:37;;;;;;;22.15;16.52;;;;;;;;;;4958941;28;20214;-64
2023/04/09 09:59:06;;;;;;;22.92;17.27;;;;;;;;;;4956664;28;20225;-64
2023/04/09 10:01:32;;;;;;;22.33;17.20;;;;;;;;;;4959466;28;20217;-65
2023/04/09 10:03:58;;;;;;;20.63;16.85;;;;;;;;;;4963610;28;20577;-65
2023/04/09 10:06:24;;;;;;;19.17;15.63;;;;;;;;;;4963382;28;20260;-65
2023/04/09 10:08:51;;;;;;;20.35;15.45;;;;;;;;;;4965077;28;20276;-65
2023/04/09 10:11:17;;;;;;;19.02;15.02;;;;;;;;;;4947681;28;20293;-64
2023/04/09 10:13:44;;;;;;;18.38;14.85;;;;;;;;;;4950755;28;20238;-65
2023/04/09 10:16:10;;;;;;;18.95;14.70;;;;;;;;;;4929113;28;20228;-64
2023/04/09 10:18:35;;;;;;;17.77;14.90;;;;;;;;;;4942400;28;20218;-65
2023/04/09 10:21:06;;;;;;;21.75;14.68;;;;;;;;;;4921108;28;20730;-65
2023/04/09 10:23:35;;;;;;;19.33;15.68;;;;;;;;;;4922379;28;20218;-64
2023/04/09 10:26:01;;;;;;;18.42;14.48;;;;;;;;;;4942192;28;20483;-64
2023/04/09 10:28:27;;;;;;;18.08;14.35;;;;;;;;;;4946540;28;20605;-64
2023/04/09 10:30:52;;;;;;;17.77;13.23;;;;;;;;;;4946089;28;20222;-65
2023/04/09 10:33:25;;;;;;;15.57;12.38;;;;;;;;;;4950466;28;20701;-64
2023/04/09 10:35:50;;;;;;;17.17;12.88;;;;;;;;;;4951693;29;20242;-64
2023/04/09 10:38:15;;;;;;;15.20;11.18;;;;;;;;;;4956029;28;20202;-65
2023/04/09 10:40:48;;;;;;;15.45;11.48;;;;;;;;;;4966749;28;20214;-66
2023/04/09 10:43:13;;;;;;;15.23;11.38;;;;;;;;;;4959301;28;20291;-66
2023/04/09 10:45:40;;;;;;;14.80;11.15;;;;;;;;;;4934425;29;20230;-66
2023/04/09 10:48:06;;;;;;;14.23;11.00;;;;;;;;;;4962103;28;20222;-65
2023/04/09 10:50:31;;;;;;;13.85;10.82;;;;;;;;;;4936122;29;20246;-65
2023/04/09 10:52:59;;;;;;;13.70;10.90;;;;;;;;;;4951347;29;20285;-66
2023/04/09 10:55:39;;;;;;;12.30;9.70;;;;;;;;;;4953661;28;20218;-65
2023/04/09 10:58:05;;;;;;;11.93;9.52;;;;;;;;;;4954903;29;20214;-65
2023/04/09 11:00:30;;;;;;;12.45;9.18;;;;;;;;;;4955078;29;20221;-66
2023/04/09 11:03:01;;;;;;;13.55;9.93;;;;;;;;;;4954345;29;20302;-65
2023/04/09 11:05:33;;;;;;;12.43;8.80;;;;;;;;;;4955000;29;20624;-65
2023/04/09 11:07:59;;;;;;;10.68;8.50;;;;;;;;;;4954259;29;20214;-65
2023/04/09 11:10:25;;;;;;;11.77;8.48;;;;;;;;;;4955621;28;20658;-65
2023/04/09 11:12:50;;;;;;;12.93;9.05;;;;;;;;;;4962947;28;20250;-66
2023/04/09 11:15:17;;;;;;;12.07;9.55;;;;;;;;;;4969600;28;20309;-65
2023/04/09 11:17:42;;;;;;;11.82;9.52;;;;;;;;;;4974080;28;20214;-68
2023/04/09 11:20:08;;;;;;;12.05;9.23;;;;;;;;;;4973784;28;20240;-69
2023/04/09 11:22:34;;;;;;;11.88;9.43;;;;;;;;;;4955853;28;20206;-68
2023/04/09 11:25:00;;;;;;;12.02;9.15;;;;;;;;;;4974141;28;20808;-68
2023/04/09 11:27:25;;;;;;;13.60;9.20;;;;;;;;;;4973490;28;20309;-66
2023/04/09 11:29:54;;;;;;;12.57;10.13;;;;;;;;;;4951569;28;20301;-66
2023/04/09 11:32:19;;;;;;;13.60;9.88;;;;;;;;;;4966653;28;20226;-65
2023/04/09 11:34:44;;;;;;;12.63;9.85;;;;;;;;;;4967838;28;20249;-69
2023/04/09 11:37:13;;;;;;;11.55;9.43;;;;;;;;;;4959436;28;20221;-68
2023/04/09 11:39:39;;;;;;;11.70;9.48;;;;;;;;;;4940851;28;20221;-68
2023/04/09 11:42:04;;;;;;;12.07;9.50;;;;;;;;;;4928738;28;20265;-68
2023/04/09 11:44:30;;;;;;;12.77;9.25;;;;;;;;;;4943084;28;20211;-68
2023/04/09 11:46:55;;;;;;;11.50;8.50;;;;;;;;;;4949356;28;20218;-68
2023/04/09 11:49:21;;;;;;;12.25;9.27;;;;;;;;;;4948721;28;20234;-68
2023/04/09 11:51:46;;;;;;;12.63;8.85;;;;;;;;;;4948363;28;20214;-70
2023/04/09 11:54:12;;;;;;;10.55;8.23;;;;;;;;;;4948543;28;20561;-68
2023/04/09 11:56:37;;;;;;;10.32;7.80;;;;;;;;;;4948777;28;20225;-68
2023/04/09 11:59:02;;;;;;;11.25;7.90;;;;;;;;;;4947479;28;20225;-68
2023/04/09 12:01:30;;;;;;;13.25;8.32;;;;;;;;;;4942342;28;20221;-68
2023/04/09 12:03:55;;;;;;;10.80;8.13;;;;;;;;;;4941708;28;20721;-68
2023/04/09 12:06:23;;;;;;;10.55;7.88;;;;;;;;;;4958483;28;20222;-68
2023/04/09 12:08:52;;;;;;;11.13;8.30;;;;;;;;;;4951027;28;20379;-68
2023/04/09 12:11:17;;;;;;;12.50;8.93;;;;;;;;;;4946723;28;20573;-67
2023/04/09 12:13:44;;;;;;;12.05;8.98;;;;;;;;;;4948394;28;20230;-68
2023/04/09 12:16:12;;;;;;;12.77;9.75;;;;;;;;;;4930854;28;20210;-67
2023/04/09 12:18:37;;;;;;;12.18;9.82;;;;;;;;;;4947678;28;20230;-67
2023/04/09 12:21:03;;;;;;;13.38;10.35;;;;;;;;;;4947882;28;20218;-67
2023/04/09 12:23:30;;;;;;;12.48;9.13;;;;;;;;;;4926481;28;20733;-68
2023/04/09 12:25:57;;;;;;;13.48;9.98;;;;;;;;;;4940197;28;20810;-68
2023/04/09 12:28:23;;;;;;;12.57;10.13;;;;;;;;;;4940254;28;20256;-68
2023/04/09 12:30:49;;;;;;;14.43;11.25;;;;;;;;;;4945196;28;20206;-68
2023/04/09 12:33:15;;;;;;;16.52;10.85;;;;;;;;;;4929466;28;20230;-67
2023/04/09 12:35:40;;;;;;;13.80;10.60;;;;;;;;;;4947820;28;20854;-67
2023/04/09 12:38:05;;;;;;;12.77;10.90;;;;;;;;;;4950015;28;20257;-67
2023/04/09 12:40:30;;;;;;;13.32;10.98;;;;;;;;;;4954497;28;20265;-67
2023/04/09 12:42:56;;;;;;;14.38;10.93;;;;;;;;;;4972474;28;20210;-67
2023/04/09 12:45:21;;;;;;;14.90;10.60;;;;;;;;;;4972175;28;20210;-67
2023/04/09 12:47:46;;;;;;;14.68;11.38;;;;;;;;;;4971807;28;20218;-67
2023/04/09 12:50:12;;;;;;;14.40;11.05;;;;;;;;;;4950823;28;20217;-67
2023/04/09 12:52:37;;;;;;;15.13;11.23;;;;;;;;;;4948798;28;20231;-67
2023/04/09 12:55:02;;;;;;;14.02;10.68;;;;;;;;;;4945964;28;20269;-68
2023/04/09 12:57:28;;;;;;;14.15;11.57;;;;;;;;;;4945350;28;20656;-67
2023/04/09 12:59:53;;;;;;;15.27;11.93;;;;;;;;;;4921955;28;20830;-68
2023/04/09 13:02:20;;;;;;;16.05;11.88;;;;;;;;;;4938994;28;20674;-68
2023/04/09 13:04:45;;;;;;;13.73;11.68;;;;;;;;;;4942479;28;20623;-66
2023/04/09 13:07:11;;;;;;;12.93;10.52;;;;;;;;;;4965388;28;20754;-65
2023/04/09 13:09:37;;;;;;;11.85;9.40;;;;;;;;;;4948294;28;20213;-66
2023/04/09 13:12:02;;;;;;;13.65;10.63;;;;;;;;;;4963624;28;20224;-65
2023/04/09 13:14:27;;;;;;;13.02;10.52;;;;;;;;;;4947628;28;20227;-66
2023/04/09 13:16:53;;;;;;;14.00;10.05;;;;;;;;;;4946170;28;20211;-66
2023/04/09 13:19:18;;;;;;;11.90;10.07;;;;;;;;;;4946373;28;20222;-66
2023/04/09 13:21:43;;;;;;;11.70;9.43;;;;;;;;;;4934979;28;20706;-66
2023/04/09 13:24:08;;;;;;;13.45;10.20;;;;;;;;;;4938716;28;20218;-66
2023/04/09 13:26:34;;;;;;;13.07;10.00;;;;;;;;;;4940764;28;20242;-66
2023/04/09 13:29:00;;;;;;;12.75;9.77;;;;;;;;;;4945269;28;20214;-66
2023/04/09 13:31:26;;;;;;;11.88;9.07;;;;;;;;;;4946571;28;20227;-66
2023/04/09 13:33:51;;;;;;;11.38;8.88;;;;;;;;;;4946999;28;20230;-66
2023/04/09 13:36:16;;;;;;;11.77;9.13;;;;;;;;;;4945396;28;20234;-66
2023/04/09 13:38:41;;;;;;;10.88;8.38;;;;;;;;;;4946605;28;20214;-66
2023/04/09 13:41:07;;;;;;;11.80;9.13;;;;;;;;;;4946626;28;20524;-65
2023/04/09 13:43:32;;;;;;;11.02;8.27;;;;;;;;;;4940890;28;20289;-67
2023/04/09 13:45:57;;;;;;;10.73;8.60;;;;;;;;;;4939338;28;20442;-66
2023/04/09 13:48:23;;;;;;;9.35;7.68;;;;;;;;;;4939533;28;20241;-65
2023/04/09 13:50:48;;;;;;;9.07;7.68;;;;;;;;;;4943047;28;20675;-65
2023/04/09 13:53:13;;;;;;;10.13;7.82;;;;;;;;;;4946322;28;20765;-66
2023/04/09 13:55:39;;;;;;;9.68;7.65;;;;;;;;;;4946383;28;20214;-67
2023/04/09 13:58:04;;;;;;;9.82;7.93;;;;;;;;;;4944677;28;20709;-66
2023/04/09 14:00:30;;;;;;;9.85;8.20;;;;;;;;;;4946719;28;20221;-65
2023/04/09 14:02:55;;;;;;;9.07;7.28;;;;;;;;;;4946707;28;20218;-66
2023/04/09 14:05:21;;;;;;;9.27;7.53;;;;;;;;;;4942566;28;20298;-66
2023/04/09 14:07:46;;;;;;;9.07;7.30;;;;;;;;;;4944981;28;20222;-66
2023/04/09 14:10:11;;;;;;;11.20;7.30;;;;;;;;;;4939869;28;20629;-66